createdAt,value
2017-04-18T00:00:15.817Z,87.20
2017-04-18T00:01:14.820Z,87.00
2017-04-18T00:02:13.743Z,86.70
2017-04-18T00:03:12.648Z,86.40
2017-04-18T00:04:11.584Z,86.40
2017-04-18T00:05:10.528Z,86.00
2017-04-18T00:06:10.189Z,86.40
2017-04-18T00:07:09.103Z,86.70
2017-04-18T00:08:08.775Z,87.10
2017-04-18T00:09:07.714Z,87.70
2017-04-18T00:10:06.619Z,89.20
2017-04-18T00:11:05.531Z,88.90
2017-04-18T00:12:04.430Z,88.50
2017-04-18T00:13:03.323Z,88.90
2017-04-18T00:14:02.228Z,88.70
2017-04-18T00:15:01.147Z,88.60
2017-04-18T00:16:00.083Z,88.70
2017-04-18T00:16:59.041Z,89.10
2017-04-18T00:18:00.311Z,88.70
2017-04-18T00:18:59.649Z,87.60
2017-04-18T00:19:58.551Z,87.70
2017-04-18T00:20:57.503Z,87.70
2017-04-18T00:21:56.436Z,87.80
2017-04-18T00:22:55.343Z,87.70
2017-04-18T00:23:54.284Z,87.60
2017-04-18T00:24:53.249Z,88.60
2017-04-18T00:25:52.875Z,87.80
2017-04-18T00:26:51.780Z,87.60
2017-04-18T00:27:50.712Z,88.70
2017-04-18T00:28:49.650Z,88.70
2017-04-18T00:29:48.576Z,88.80
2017-04-18T00:30:47.487Z,88.60
2017-04-18T00:31:46.398Z,88.50
2017-04-18T00:32:45.300Z,88.60
2017-04-18T00:33:44.224Z,88.20
2017-04-18T00:34:43.125Z,88.20
2017-04-18T00:35:42.031Z,88.40
2017-04-18T00:36:40.939Z,88.70
2017-04-18T00:37:40.565Z,88.50
2017-04-18T00:38:39.498Z,88.40
2017-04-18T00:39:38.412Z,88.80
2017-04-18T00:40:37.310Z,89.00
2017-04-18T00:41:36.228Z,88.80
2017-04-18T00:42:35.136Z,88.40
2017-04-18T00:43:34.052Z,88.50
2017-04-18T00:44:32.991Z,88.20
2017-04-18T00:45:31.940Z,88.10
2017-04-18T00:46:30.844Z,88.10
2017-04-18T00:47:29.754Z,88.10
2017-04-18T00:48:28.658Z,88.00
2017-04-18T00:49:27.592Z,88.00
2017-04-18T00:50:26.499Z,87.80
2017-04-18T00:51:25.427Z,88.10
2017-04-18T00:52:24.375Z,87.50
2017-04-18T00:53:23.268Z,87.20
2017-04-18T00:54:22.437Z,87.00
2017-04-18T00:55:21.360Z,87.20
2017-04-18T00:56:20.280Z,86.40
2017-04-18T00:57:19.980Z,86.50
2017-04-18T00:58:19.640Z,86.60
2017-04-18T00:59:18.563Z,86.90
2017-04-18T01:00:17.536Z,87.20
2017-04-18T01:01:16.446Z,87.30
2017-04-18T01:02:15.416Z,87.30
2017-04-18T01:03:14.353Z,87.10
2017-04-18T01:04:13.251Z,88.10
2017-04-18T01:05:12.896Z,89.20
2017-04-18T01:06:11.799Z,88.30
2017-04-18T01:07:10.708Z,87.80
2017-04-18T01:08:09.642Z,88.30
2017-04-18T01:09:08.571Z,87.90
2017-04-18T01:10:07.467Z,88.20
2017-04-18T01:11:07.146Z,87.60
2017-04-18T01:12:06.042Z,87.60
2017-04-18T01:13:05.684Z,87.30
2017-04-18T01:14:04.601Z,87.80
2017-04-18T01:15:03.572Z,88.20
2017-04-18T01:16:02.495Z,87.90
2017-04-18T01:17:01.404Z,88.20
2017-04-18T01:18:00.306Z,88.20
2017-04-18T01:18:59.217Z,89.10
2017-04-18T01:19:58.893Z,88.60
2017-04-18T01:20:57.839Z,88.30
2017-04-18T01:21:56.744Z,88.20
2017-04-18T01:22:55.690Z,88.30
2017-04-18T01:23:54.584Z,88.30
2017-04-18T01:24:53.515Z,88.10
2017-04-18T01:25:52.423Z,88.30
2017-04-18T01:26:51.362Z,88.50
2017-04-18T01:27:50.280Z,87.80
2017-04-18T01:28:49.186Z,88.10
2017-04-18T01:29:48.118Z,87.90
2017-04-18T01:30:47.023Z,87.80
2017-04-18T01:31:45.931Z,88.10
2017-04-18T01:32:44.887Z,88.00
2017-04-18T01:33:43.819Z,88.70
2017-04-18T01:34:42.735Z,87.90
2017-04-18T01:35:42.455Z,87.90
2017-04-18T01:36:41.361Z,87.90
2017-04-18T01:37:40.269Z,88.10
2017-04-18T01:38:39.192Z,88.00
2017-04-18T01:39:39.544Z,87.80
2017-04-18T01:40:43.947Z,87.50
2017-04-18T01:41:48.283Z,87.40
2017-04-18T01:43:54.703Z,87.20
2017-04-18T01:45:59.939Z,86.70
2017-04-18T01:46:58.856Z,86.70
2017-04-18T01:47:57.744Z,86.60
2017-04-18T01:48:56.687Z,86.10
2017-04-18T01:49:55.803Z,86.10
2017-04-18T01:50:54.807Z,86.20
2017-04-18T01:51:53.728Z,86.00
2017-04-18T01:52:52.637Z,85.60
2017-04-18T01:53:51.524Z,85.70
2017-04-18T01:54:50.461Z,85.70
2017-04-18T01:55:49.380Z,86.20
2017-04-18T01:56:48.272Z,86.10
2017-04-18T01:57:47.253Z,85.80
2017-04-18T01:58:46.169Z,85.70
2017-04-18T01:59:45.936Z,85.90
2017-04-18T02:00:44.852Z,85.80
2017-04-18T02:01:43.767Z,86.00
2017-04-18T02:02:42.692Z,85.80
2017-04-18T02:03:41.598Z,85.90
2017-04-18T02:04:41.271Z,86.00
2017-04-18T02:05:40.168Z,86.10
2017-04-18T02:06:39.881Z,85.40
2017-04-18T02:07:39.532Z,85.50
2017-04-18T02:08:38.439Z,85.10
2017-04-18T02:09:37.341Z,85.20
2017-04-18T02:10:36.992Z,85.20
2017-04-18T02:11:35.893Z,84.70
2017-04-18T02:12:34.855Z,84.90
2017-04-18T02:13:33.767Z,85.30
2017-04-18T02:14:32.748Z,85.70
2017-04-18T02:15:31.665Z,85.60
2017-04-18T02:16:30.595Z,85.80
2017-04-18T02:17:29.597Z,85.50
2017-04-18T02:18:29.340Z,85.60
2017-04-18T02:19:28.227Z,85.40
2017-04-18T02:20:27.130Z,85.60
2017-04-18T02:21:26.061Z,85.70
2017-04-18T02:22:24.997Z,85.80
2017-04-18T02:23:23.900Z,86.20
2017-04-18T02:24:23.595Z,86.20
2017-04-18T02:25:22.489Z,85.90
2017-04-18T02:26:22.156Z,86.00
2017-04-18T02:27:21.055Z,86.00
2017-04-18T02:28:19.981Z,85.80
2017-04-18T02:29:18.917Z,86.00
2017-04-18T02:30:17.840Z,86.10
2017-04-18T02:31:16.770Z,85.40
2017-04-18T02:32:15.695Z,85.40
2017-04-18T02:33:14.608Z,85.70
2017-04-18T02:34:13.916Z,86.10
2017-04-18T02:35:12.833Z,86.40
2017-04-18T02:36:11.784Z,85.80
2017-04-18T02:37:10.769Z,85.50
2017-04-18T02:38:09.669Z,85.40
2017-04-18T02:39:09.320Z,86.00
2017-04-18T02:40:08.228Z,86.90
2017-04-18T02:41:07.133Z,85.90
2017-04-18T02:42:07.825Z,85.30
2017-04-18T02:43:06.736Z,85.40
2017-04-18T02:44:05.676Z,85.10
2017-04-18T02:45:04.615Z,85.00
2017-04-18T02:46:03.528Z,84.50
2017-04-18T02:47:02.447Z,84.20
2017-04-18T02:48:01.377Z,84.10
2017-04-18T02:49:00.297Z,84.50
2017-04-18T02:49:59.204Z,84.50
2017-04-18T02:50:58.138Z,84.30
2017-04-18T02:51:57.075Z,84.00
2017-04-18T02:52:56.008Z,83.80
2017-04-18T02:53:54.960Z,83.90
2017-04-18T02:54:53.968Z,84.10
2017-04-18T02:55:52.867Z,84.50
2017-04-18T02:56:51.816Z,84.50
2017-04-18T02:57:50.740Z,84.20
2017-04-18T02:58:49.693Z,84.10
2017-04-18T02:59:48.616Z,84.20
2017-04-18T03:00:48.276Z,84.90
2017-04-18T03:01:47.199Z,84.90
2017-04-18T03:02:46.126Z,85.30
2017-04-18T03:03:45.021Z,85.30
2017-04-18T03:04:43.933Z,85.60
2017-04-18T03:05:43.623Z,86.00
2017-04-18T03:06:42.536Z,86.30
2017-04-18T03:07:41.482Z,85.60
2017-04-18T03:08:40.420Z,85.80
2017-04-18T03:09:39.335Z,85.50
2017-04-18T03:10:38.259Z,85.50
2017-04-18T03:11:37.193Z,85.20
2017-04-18T03:12:36.104Z,85.70
2017-04-18T03:13:35.796Z,86.00
2017-04-18T03:14:35.433Z,85.80
2017-04-18T03:15:34.339Z,86.10
2017-04-18T03:16:33.296Z,86.30
2017-04-18T03:17:32.238Z,86.90
2017-04-18T03:18:31.186Z,87.40
2017-04-18T03:19:30.112Z,88.00
2017-04-18T03:20:29.028Z,88.30
2017-04-18T03:21:28.009Z,88.00
2017-04-18T03:22:26.949Z,87.90
2017-04-18T03:23:26.659Z,88.40
2017-04-18T03:24:25.644Z,88.90
2017-04-18T03:25:24.599Z,88.80
2017-04-18T03:26:23.511Z,88.60
2017-04-18T03:27:22.487Z,88.20
2017-04-18T03:28:21.395Z,88.20
2017-04-18T03:29:20.416Z,88.30
2017-04-18T03:30:19.333Z,88.00
2017-04-18T03:31:18.243Z,88.80
2017-04-18T03:32:17.228Z,88.70
2017-04-18T03:33:16.191Z,89.30
2017-04-18T03:34:15.151Z,89.00
2017-04-18T03:35:15.223Z,88.60
2017-04-18T03:36:14.227Z,88.70
2017-04-18T03:37:13.377Z,88.30
2017-04-18T03:38:12.485Z,87.90
2017-04-18T03:39:11.401Z,88.00
2017-04-18T03:40:10.360Z,88.20
2017-04-18T03:41:09.353Z,88.20
2017-04-18T03:42:08.294Z,88.10
2017-04-18T03:43:07.235Z,87.80
2017-04-18T03:44:06.184Z,88.70
2017-04-18T03:45:05.124Z,88.90
2017-04-18T03:46:04.052Z,88.20
2017-04-18T03:47:03.037Z,87.80
2017-04-18T03:48:02.053Z,87.60
2017-04-18T03:49:01.048Z,88.30
2017-04-18T03:50:00.058Z,88.30
2017-04-18T03:50:59.906Z,89.10
2017-04-18T03:51:58.904Z,88.30
2017-04-18T03:52:57.872Z,88.10
2017-04-18T03:53:56.825Z,87.90
2017-04-18T03:54:55.772Z,88.60
2017-04-18T03:55:54.706Z,87.40
2017-04-18T03:56:53.628Z,87.70
2017-04-18T03:57:52.639Z,87.80
2017-04-18T03:58:51.623Z,88.10
2017-04-18T03:59:50.596Z,88.20
2017-04-18T04:00:49.605Z,87.60
2017-04-18T04:01:48.553Z,87.50
2017-04-18T04:02:47.502Z,87.20
2017-04-18T04:03:46.524Z,87.60
2017-04-18T04:04:46.223Z,87.80
2017-04-18T04:05:45.142Z,87.60
2017-04-18T04:06:44.049Z,87.20
2017-04-18T04:07:42.944Z,86.70
2017-04-18T04:08:42.632Z,87.00
2017-04-18T04:09:41.585Z,86.80
2017-04-18T04:10:40.529Z,86.70
2017-04-18T04:11:40.368Z,86.30
2017-04-18T04:12:39.289Z,86.20
2017-04-18T04:13:38.196Z,86.20
2017-04-18T04:14:37.132Z,86.50
2017-04-18T04:15:36.066Z,86.20
2017-04-18T04:16:35.055Z,86.70
2017-04-18T04:17:34.081Z,86.30
2017-04-18T04:18:33.608Z,86.00
2017-04-18T04:19:33.334Z,86.20
2017-04-18T04:20:32.338Z,87.00
2017-04-18T04:21:31.440Z,86.40
2017-04-18T04:22:30.429Z,85.70
2017-04-18T04:23:29.584Z,85.90
2017-04-18T04:24:28.508Z,86.20
2017-04-18T04:25:27.481Z,86.10
2017-04-18T04:26:26.367Z,85.60
2017-04-18T04:27:25.356Z,85.90
2017-04-18T04:28:24.336Z,85.80
2017-04-18T04:29:23.240Z,86.00
2017-04-18T04:30:23.500Z,86.20
2017-04-18T04:31:22.446Z,86.00
2017-04-18T04:32:21.771Z,86.70
2017-04-18T04:33:20.692Z,85.80
2017-04-18T04:34:19.636Z,86.40
2017-04-18T04:35:18.557Z,86.30
2017-04-18T04:36:17.465Z,85.50
2017-04-18T04:37:16.376Z,85.10
2017-04-18T04:38:15.288Z,84.80
2017-04-18T04:39:14.185Z,84.80
2017-04-18T04:40:13.129Z,85.30
2017-04-18T04:41:12.069Z,85.40
2017-04-18T04:42:10.997Z,86.20
2017-04-18T04:43:09.914Z,85.00
2017-04-18T04:44:09.556Z,84.40
2017-04-18T04:45:08.453Z,84.30
2017-04-18T04:46:07.408Z,83.80
2017-04-18T04:47:06.307Z,83.70
2017-04-18T04:48:05.207Z,84.20
2017-04-18T04:49:04.121Z,84.40
2017-04-18T04:50:03.783Z,84.60
2017-04-18T04:51:02.724Z,84.40
2017-04-18T04:52:01.669Z,84.60
2017-04-18T04:53:00.592Z,84.50
2017-04-18T04:53:59.500Z,83.60
2017-04-18T04:54:58.424Z,84.20
2017-04-18T04:55:57.332Z,84.20
2017-04-18T04:56:56.252Z,84.00
2017-04-18T04:57:55.206Z,84.00
2017-04-18T04:58:54.119Z,84.00
2017-04-18T04:59:53.077Z,82.40
2017-04-18T05:00:52.007Z,82.90
2017-04-18T05:01:50.960Z,83.00
2017-04-18T05:02:49.928Z,83.50
2017-04-18T05:03:48.916Z,83.40
2017-04-18T05:04:48.057Z,82.20
2017-04-18T05:05:46.983Z,81.90
2017-04-18T05:06:45.906Z,82.50
2017-04-18T05:07:45.616Z,82.60
2017-04-18T05:08:44.540Z,83.20
2017-04-18T05:09:43.456Z,82.30
2017-04-18T05:10:42.347Z,82.10
2017-04-18T05:11:41.989Z,81.60
2017-04-18T05:12:40.887Z,81.80
2017-04-18T05:13:39.808Z,81.90
2017-04-18T05:14:38.687Z,81.90
2017-04-18T05:15:37.669Z,82.40
2017-04-18T05:16:37.316Z,81.50
2017-04-18T05:17:36.349Z,81.20
2017-04-18T05:18:36.008Z,81.40
2017-04-18T05:19:34.916Z,81.30
2017-04-18T05:20:33.892Z,82.20
2017-04-18T05:21:32.832Z,81.00
2017-04-18T05:22:31.735Z,81.00
2017-04-18T05:23:30.640Z,80.70
2017-04-18T05:24:29.555Z,80.70
2017-04-18T05:25:28.479Z,80.70
2017-04-18T05:26:27.391Z,80.60
2017-04-18T05:27:27.084Z,81.30
2017-04-18T05:28:25.994Z,81.50
2017-04-18T05:29:24.916Z,81.40
2017-04-18T05:30:23.864Z,81.10
2017-04-18T05:31:22.887Z,82.00
2017-04-18T05:32:21.969Z,80.50
2017-04-18T05:33:20.924Z,79.70
2017-04-18T05:34:19.834Z,80.70
2017-04-18T05:35:18.763Z,80.40
2017-04-18T05:36:17.719Z,81.30
2017-04-18T05:37:16.684Z,79.90
2017-04-18T05:38:15.594Z,80.30
2017-04-18T05:39:14.549Z,79.90
2017-04-18T05:40:13.568Z,80.20
2017-04-18T05:41:12.556Z,80.50
2017-04-18T05:42:11.515Z,80.80
2017-04-18T05:43:10.473Z,81.00
2017-04-18T05:44:09.456Z,80.70
2017-04-18T05:45:08.372Z,80.70
2017-04-18T05:46:08.424Z,81.30
2017-04-18T05:47:07.342Z,80.70
2017-04-18T05:48:06.261Z,80.70
2017-04-18T05:49:05.188Z,80.30
2017-04-18T05:50:04.137Z,80.50
2017-04-18T05:51:09.747Z,79.60
2017-04-18T05:52:08.694Z,79.90
2017-04-18T05:53:07.588Z,79.90
2017-04-18T05:54:07.363Z,79.70
2017-04-18T05:55:06.332Z,80.20
2017-04-18T05:56:05.244Z,80.30
2017-04-18T05:57:04.232Z,79.80
2017-04-18T05:58:03.899Z,80.80
2017-04-18T05:59:02.843Z,79.90
2017-04-18T06:00:01.752Z,80.70
2017-04-18T06:01:00.653Z,79.70
2017-04-18T06:01:59.621Z,79.50
2017-04-18T06:02:58.597Z,78.10
2017-04-18T06:03:57.504Z,78.50
2017-04-18T06:04:56.419Z,77.50
2017-04-18T06:05:56.064Z,77.00
2017-04-18T06:06:54.964Z,77.30
2017-04-18T06:07:53.948Z,77.80
2017-04-18T06:08:52.861Z,77.00
2017-04-18T06:09:53.083Z,78.00
2017-04-18T06:10:51.988Z,77.40
2017-04-18T06:11:50.907Z,76.90
2017-04-18T06:12:49.923Z,77.50
2017-04-18T06:13:48.839Z,76.90
2017-04-18T06:14:47.794Z,76.90
2017-04-18T06:15:46.686Z,76.10
2017-04-18T06:16:45.579Z,76.00
2017-04-18T06:17:44.547Z,75.80
2017-04-18T06:18:43.492Z,76.30
2017-04-18T06:19:42.404Z,76.80
2017-04-18T06:20:41.376Z,75.90
2017-04-18T06:21:40.419Z,75.60
2017-04-18T06:22:40.216Z,76.20
2017-04-18T06:23:39.157Z,76.40
2017-04-18T06:24:38.144Z,75.50
2017-04-18T06:25:37.130Z,75.40
2017-04-18T06:26:36.102Z,75.70
2017-04-18T06:27:35.021Z,75.80
2017-04-18T06:28:33.940Z,73.90
2017-04-18T06:29:32.896Z,75.20
2017-04-18T06:30:31.820Z,75.10
2017-04-18T06:31:30.744Z,75.00
2017-04-18T06:32:29.762Z,75.30
2017-04-18T06:33:28.663Z,75.30
2017-04-18T06:34:27.698Z,75.20
2017-04-18T06:35:26.691Z,74.20
2017-04-18T06:36:25.621Z,73.90
2017-04-18T06:37:24.547Z,74.10
2017-04-18T06:38:23.532Z,74.80
2017-04-18T06:39:22.442Z,74.70
2017-04-18T06:40:22.179Z,74.70
2017-04-18T06:41:21.158Z,73.00
2017-04-18T06:42:20.168Z,73.80
2017-04-18T06:43:19.141Z,73.60
2017-04-18T06:44:18.151Z,73.40
2017-04-18T06:45:17.089Z,73.40
2017-04-18T06:46:15.999Z,74.40
2017-04-18T06:47:15.692Z,73.90
2017-04-18T06:48:14.673Z,72.40
2017-04-18T06:49:13.589Z,72.50
2017-04-18T06:50:12.575Z,72.80
2017-04-18T06:51:12.276Z,72.20
2017-04-18T06:52:11.300Z,72.00
2017-04-18T06:53:10.291Z,72.10
2017-04-18T06:54:09.207Z,71.20
2017-04-18T06:55:08.109Z,68.20
2017-04-18T06:56:07.071Z,69.80
2017-04-18T06:57:06.116Z,70.00
2017-04-18T06:58:05.130Z,70.50
2017-04-18T06:59:04.132Z,69.60
2017-04-18T07:00:03.939Z,70.60
2017-04-18T07:01:03.610Z,70.50
2017-04-18T07:02:02.539Z,70.00
2017-04-18T07:03:10.448Z,69.40
2017-04-18T07:04:09.368Z,69.80
2017-04-18T07:05:08.308Z,68.50
2017-04-18T07:06:07.240Z,67.20
2017-04-18T07:07:06.232Z,66.80
2017-04-18T07:08:06.215Z,66.50
2017-04-18T07:09:05.969Z,66.70
2017-04-18T07:10:04.922Z,66.70
2017-04-18T07:11:03.861Z,65.90
2017-04-18T07:12:02.803Z,65.20
2017-04-18T07:13:01.725Z,64.50
2017-04-18T07:14:00.727Z,65.00
2017-04-18T07:14:59.677Z,65.30
2017-04-18T07:15:58.589Z,65.40
2017-04-18T07:16:57.514Z,65.90
2017-04-18T07:17:56.499Z,65.90
2017-04-18T07:18:55.448Z,64.80
2017-04-18T07:19:55.142Z,63.60
2017-04-18T07:20:54.152Z,61.80
2017-04-18T07:21:53.108Z,61.50
2017-04-18T07:22:52.061Z,59.20
2017-04-18T07:23:51.151Z,57.80
2017-04-18T07:24:50.124Z,58.30
2017-04-18T07:25:49.023Z,58.50
2017-04-18T07:26:47.988Z,58.70
2017-04-18T07:27:46.920Z,59.10
2017-04-18T07:28:45.964Z,60.20
2017-04-18T07:29:44.896Z,60.00
2017-04-18T07:30:43.824Z,59.50
2017-04-18T07:31:42.758Z,59.10
2017-04-18T07:32:41.769Z,59.40
2017-04-18T07:33:40.709Z,59.00
2017-04-18T07:34:39.699Z,59.00
2017-04-18T07:35:38.625Z,59.50
2017-04-18T07:36:37.609Z,58.70
2017-04-18T07:37:36.556Z,58.20
2017-04-18T07:38:35.485Z,58.80
2017-04-18T07:40:33.751Z,58.00
2017-04-18T07:41:32.678Z,58.30
2017-04-18T07:42:31.633Z,57.80
2017-04-18T07:43:31.362Z,57.40
2017-04-18T07:44:30.284Z,57.10
2017-04-18T07:45:29.264Z,56.90
2017-04-18T07:46:28.276Z,57.00
2017-04-18T07:47:27.244Z,57.60
2017-04-18T07:48:26.227Z,57.60
2017-04-18T07:49:25.214Z,57.80
2017-04-18T07:50:24.150Z,56.20
2017-04-18T07:51:23.132Z,57.00
2017-04-18T07:52:22.055Z,57.20
2017-04-18T07:53:20.984Z,57.20
2017-04-18T07:54:19.997Z,57.50
2017-04-18T07:55:18.907Z,57.90
2017-04-18T07:56:17.811Z,57.90
2017-04-18T07:57:17.572Z,60.00
2017-04-18T07:58:16.479Z,62.40
2017-04-18T07:59:15.410Z,63.20
2017-04-18T08:00:14.381Z,64.10
2017-04-18T08:01:13.315Z,64.10
2017-04-18T08:02:12.255Z,63.90
2017-04-18T08:03:11.181Z,63.30
2017-04-18T08:04:10.096Z,63.70
2017-04-18T08:05:09.034Z,64.00
2017-04-18T08:06:08.020Z,64.10
2017-04-18T08:07:06.945Z,64.70
2017-04-18T08:08:05.881Z,65.20
2017-04-18T08:09:05.209Z,65.30
2017-04-18T08:10:04.107Z,64.00
2017-04-18T08:11:03.128Z,64.00
2017-04-18T08:12:02.054Z,63.90
2017-04-18T08:13:01.043Z,64.00
2017-04-18T08:13:59.962Z,63.00
2017-04-18T08:14:58.898Z,62.80
2017-04-18T08:15:58.541Z,62.70
2017-04-18T08:16:57.471Z,62.40
2017-04-18T08:17:57.290Z,61.00
2017-04-18T08:18:56.252Z,61.00
2017-04-18T08:19:55.234Z,60.50
2017-04-18T08:20:54.234Z,60.70
2017-04-18T08:21:53.324Z,61.10
2017-04-18T08:22:52.250Z,59.80
2017-04-18T08:23:51.271Z,59.50
2017-04-18T08:24:50.220Z,59.00
2017-04-18T08:25:49.192Z,59.00
2017-04-18T08:26:48.239Z,59.50
2017-04-18T08:27:47.153Z,59.10
2017-04-18T08:28:46.069Z,58.70
2017-04-18T08:29:45.006Z,58.90
2017-04-18T08:30:43.971Z,58.70
2017-04-18T08:31:42.879Z,58.50
2017-04-18T08:32:41.770Z,58.20
2017-04-18T08:33:41.455Z,58.60
2017-04-18T08:34:40.399Z,58.50
2017-04-18T08:35:39.629Z,58.70
2017-04-18T08:36:38.527Z,58.30
2017-04-18T08:37:37.512Z,58.50
2017-04-18T08:38:36.410Z,58.60
2017-04-18T08:39:36.141Z,59.10
2017-04-18T08:40:36.464Z,59.30
2017-04-18T08:41:37.141Z,59.80
2017-04-18T08:42:36.903Z,59.90
2017-04-18T08:43:37.502Z,60.20
2017-04-18T08:44:38.333Z,60.20
2017-04-18T08:45:38.887Z,60.60
2017-04-18T08:46:39.407Z,61.10
2017-04-18T08:47:39.160Z,61.10
2017-04-18T08:48:39.549Z,61.30
2017-04-18T08:49:38.506Z,60.70
2017-04-18T08:50:37.457Z,60.70
2017-04-18T08:51:36.376Z,60.50
2017-04-18T08:52:35.380Z,61.20
2017-04-18T08:53:35.304Z,61.50
2017-04-18T08:54:35.832Z,61.80
2017-04-18T08:56:38.137Z,62.20
2017-04-18T08:57:38.627Z,62.70
2017-04-18T08:58:37.566Z,62.80
2017-04-18T08:59:36.503Z,63.00
2017-04-18T09:00:35.421Z,63.20
2017-04-18T09:01:34.340Z,63.40
2017-04-18T09:02:33.308Z,64.00
2017-04-18T09:03:32.337Z,64.20
2017-04-18T09:04:31.234Z,64.00
2017-04-18T09:05:30.197Z,63.20
2017-04-18T09:06:29.189Z,62.60
2017-04-18T09:07:28.150Z,61.70
2017-04-18T09:08:27.082Z,61.80
2017-04-18T09:09:26.808Z,61.40
2017-04-18T09:10:25.758Z,61.30
2017-04-18T09:11:24.722Z,61.40
2017-04-18T09:12:23.685Z,61.50
2017-04-18T09:13:22.729Z,61.50
2017-04-18T09:14:21.678Z,61.60
2017-04-18T09:15:20.658Z,62.00
2017-04-18T09:16:19.616Z,61.80
2017-04-18T09:22:28.596Z,61.90
2017-04-18T09:23:27.497Z,64.80
2017-04-18T09:24:26.425Z,67.00
2017-04-18T09:25:25.354Z,65.10
2017-04-18T09:26:24.285Z,64.90
2017-04-18T09:27:23.280Z,64.80
2017-04-18T09:28:22.258Z,62.80
2017-04-18T09:29:21.148Z,62.60
2017-04-18T09:30:20.200Z,62.50
2017-04-18T09:31:19.137Z,62.60
2017-04-18T09:32:18.807Z,62.30
2017-04-18T09:33:17.939Z,61.90
2017-04-18T09:34:16.942Z,62.10
2017-04-18T09:35:15.905Z,59.90
2017-04-18T09:36:14.875Z,59.20
2017-04-18T09:37:14.516Z,59.80
2017-04-18T09:38:13.485Z,60.10
2017-04-18T09:39:12.432Z,59.80
2017-04-18T09:40:12.138Z,59.50
2017-04-18T09:41:11.080Z,59.20
2017-04-18T09:42:10.107Z,59.70
2017-04-18T09:43:09.077Z,60.00
2017-04-18T09:44:09.321Z,59.90
2017-04-18T09:45:08.223Z,59.50
2017-04-18T09:46:07.155Z,59.60
2017-04-18T09:47:06.803Z,59.40
2017-04-18T09:48:05.724Z,58.80
2017-04-18T09:49:04.695Z,58.90
2017-04-18T09:50:04.452Z,58.50
2017-04-18T09:51:03.377Z,58.30
2017-04-18T09:52:02.438Z,58.10
2017-04-18T09:53:01.372Z,58.60
2017-04-18T09:54:00.376Z,57.90
2017-04-18T09:54:59.376Z,57.70
2017-04-18T09:55:58.284Z,57.20
2017-04-18T09:56:57.264Z,57.40
2017-04-18T09:57:56.212Z,57.40
2017-04-18T09:58:55.150Z,57.40
2017-04-18T09:59:54.072Z,57.40
2017-04-18T10:00:52.984Z,56.80
2017-04-18T10:01:51.896Z,56.70
2017-04-18T10:02:51.611Z,56.30
2017-04-18T10:03:50.528Z,55.90
2017-04-18T10:04:49.464Z,55.90
2017-04-18T10:05:49.096Z,55.80
2017-04-18T10:06:48.054Z,56.20
2017-04-18T10:07:47.077Z,56.30
2017-04-18T10:08:46.156Z,56.20
2017-04-18T10:09:45.110Z,56.10
2017-04-18T10:10:44.200Z,56.00
2017-04-18T10:11:43.119Z,55.90
2017-04-18T10:12:42.082Z,56.00
2017-04-18T10:13:40.984Z,55.00
2017-04-18T10:14:39.922Z,54.80
2017-04-18T10:15:38.894Z,54.00
2017-04-18T10:16:37.819Z,54.60
2017-04-18T10:17:36.797Z,53.70
2017-04-18T10:18:36.085Z,53.80
2017-04-18T10:19:35.799Z,54.30
2017-04-18T10:20:34.963Z,53.80
2017-04-18T10:21:33.953Z,54.10
2017-04-18T10:22:32.856Z,53.90
2017-04-18T10:23:32.294Z,53.90
2017-04-18T10:24:31.256Z,53.10
2017-04-18T10:25:30.936Z,53.40
2017-04-18T10:26:29.885Z,53.90
2017-04-18T10:27:28.876Z,53.70
2017-04-18T10:28:27.780Z,52.50
2017-04-18T10:29:26.683Z,53.10
2017-04-18T10:30:26.336Z,52.30
2017-04-18T10:31:25.355Z,52.30
2017-04-18T10:32:25.009Z,52.50
2017-04-18T10:33:23.972Z,52.90
2017-04-18T10:34:22.978Z,52.30
2017-04-18T10:35:21.929Z,51.90
2017-04-18T10:36:20.951Z,51.90
2017-04-18T10:37:20.128Z,50.70
2017-04-18T10:38:19.160Z,50.40
2017-04-18T10:39:18.140Z,50.70
2017-04-18T10:40:17.217Z,49.60
2017-04-18T10:41:16.175Z,50.40
2017-04-18T10:42:15.175Z,49.00
2017-04-18T10:43:14.163Z,49.00
2017-04-18T10:44:13.125Z,49.10
2017-04-18T10:45:12.062Z,48.90
2017-04-18T10:46:11.107Z,48.90
2017-04-18T10:47:10.085Z,47.00
2017-04-18T10:48:08.986Z,47.40
2017-04-18T10:49:08.711Z,46.90
2017-04-18T10:50:07.598Z,46.30
2017-04-18T10:51:06.545Z,47.10
2017-04-18T10:52:05.483Z,46.70
2017-04-18T10:53:04.388Z,46.80
2017-04-18T10:54:03.365Z,46.20
2017-04-18T10:55:03.597Z,46.00
2017-04-18T10:56:03.923Z,45.90
2017-04-18T10:57:03.886Z,46.10
2017-04-18T10:58:04.738Z,46.70
2017-04-18T10:59:04.682Z,47.80
2017-04-18T11:00:06.954Z,48.20
2017-04-18T11:01:08.401Z,48.50
2017-04-18T11:02:09.202Z,49.00
2017-04-18T11:03:09.560Z,49.40
2017-04-18T11:04:10.467Z,49.80
2017-04-18T11:05:11.275Z,49.60
2017-04-18T11:06:12.031Z,49.80
2017-04-18T11:07:13.577Z,50.30
2017-04-18T11:08:13.431Z,50.30
2017-04-18T11:09:13.955Z,50.80
2017-04-18T11:10:14.255Z,51.10
2017-04-18T11:11:14.670Z,51.20
2017-04-18T11:12:16.332Z,50.30
2017-04-18T11:13:15.726Z,50.70
2017-04-18T11:14:14.672Z,50.20
2017-04-18T11:15:13.612Z,50.60
2017-04-18T11:16:12.557Z,50.80
2017-04-18T11:17:11.519Z,51.20
2017-04-18T11:18:11.266Z,51.10
2017-04-18T11:19:10.188Z,51.60
2017-04-18T11:20:09.180Z,51.70
2017-04-18T11:21:08.108Z,51.60
2017-04-18T11:22:07.321Z,52.40
2017-04-18T11:23:06.328Z,52.30
2017-04-18T11:24:05.264Z,52.50
2017-04-18T11:25:04.261Z,52.40
2017-04-18T11:26:03.220Z,51.80
2017-04-18T11:27:02.208Z,52.30
2017-04-18T11:28:01.187Z,52.00
2017-04-18T11:29:00.139Z,50.80
2017-04-18T11:29:59.941Z,50.00
2017-04-18T11:30:59.644Z,49.90
2017-04-18T11:31:58.606Z,49.80
2017-04-18T11:32:57.543Z,50.00
2017-04-18T11:33:56.460Z,49.70
2017-04-18T11:34:55.449Z,49.30
2017-04-18T11:35:54.492Z,50.20
2017-04-18T11:36:53.457Z,50.80
2017-04-18T11:37:52.440Z,51.10
2017-04-18T11:38:51.495Z,50.50
2017-04-18T11:39:50.440Z,49.70
2017-04-18T11:40:49.536Z,50.00
2017-04-18T11:41:48.539Z,50.30
2017-04-18T11:42:47.788Z,50.70
2017-04-18T11:43:46.733Z,51.40
2017-04-18T11:44:45.708Z,51.90
2017-04-18T11:45:45.375Z,51.10
2017-04-18T11:46:44.363Z,51.20
2017-04-18T11:47:43.433Z,50.90
2017-04-18T11:48:42.588Z,50.90
2017-04-18T11:49:41.614Z,50.60
2017-04-18T11:50:40.576Z,50.20
2017-04-18T11:51:39.501Z,47.00
2017-04-18T11:52:38.503Z,47.00
2017-04-18T11:53:37.444Z,47.80
2017-04-18T11:54:37.099Z,48.20
2017-04-18T11:55:36.040Z,47.80
2017-04-18T11:56:35.910Z,47.90
2017-04-18T11:57:34.956Z,47.40
2017-04-18T11:58:33.873Z,47.70
2017-04-18T11:59:32.827Z,47.40
2017-04-18T12:00:31.788Z,48.50
2017-04-18T12:01:30.783Z,48.60
2017-04-18T12:02:29.760Z,48.60
2017-04-18T12:03:28.913Z,47.30
2017-04-18T12:04:27.921Z,47.40
2017-04-18T12:05:26.904Z,47.50
2017-04-18T12:06:25.992Z,46.80
2017-04-18T12:07:24.954Z,47.10
2017-04-18T12:08:23.917Z,46.70
2017-04-18T12:09:22.858Z,46.40
2017-04-18T12:10:21.799Z,45.90
2017-04-18T12:11:20.727Z,45.70
2017-04-18T12:12:19.639Z,45.50
2017-04-18T12:13:18.651Z,45.00
2017-04-18T12:14:17.659Z,45.10
2017-04-18T12:15:16.724Z,46.30
2017-04-18T12:16:15.684Z,47.00
2017-04-18T12:17:14.637Z,47.60
2017-04-18T12:18:13.544Z,47.80
2017-04-18T12:19:13.293Z,47.50
2017-04-18T12:20:12.249Z,48.00
2017-04-18T12:21:11.399Z,48.70
2017-04-18T12:22:10.383Z,47.60
2017-04-18T12:23:09.345Z,47.50
2017-04-18T12:24:08.260Z,47.20
2017-04-18T12:25:07.172Z,47.80
2017-04-18T12:26:06.077Z,48.90
2017-04-18T12:27:05.078Z,48.80
2017-04-18T12:28:04.030Z,49.00
2017-04-18T12:29:02.991Z,49.00
2017-04-18T12:30:01.924Z,49.10
2017-04-18T12:31:00.816Z,49.20
2017-04-18T12:31:59.825Z,49.30
2017-04-18T12:32:58.758Z,49.10
2017-04-18T12:33:57.659Z,48.50
2017-04-18T12:34:56.626Z,48.00
2017-04-18T12:35:55.657Z,47.80
2017-04-18T12:36:54.633Z,47.50
2017-04-18T12:37:54.421Z,47.60
2017-04-18T12:38:53.364Z,47.50
2017-04-18T12:39:52.271Z,48.10
2017-04-18T12:40:51.412Z,46.70
2017-04-18T12:41:50.391Z,46.90
2017-04-18T12:42:49.395Z,45.00
2017-04-18T12:43:48.292Z,44.60
2017-04-18T12:44:47.297Z,43.10
2017-04-18T12:45:46.270Z,42.90
2017-04-18T12:46:45.211Z,43.30
2017-04-18T12:47:44.210Z,43.90
2017-04-18T12:48:43.191Z,42.40
2017-04-18T12:49:42.089Z,42.00
2017-04-18T12:50:41.104Z,41.90